Flight Track Log - Related Links

Times and Time Zones

All times are in EDT time to prevent confusion due to time zone crossing. See the SKW6534 flight status page for this flight to view local times or setup timezone preferences in your user account.

Time Position Orientation Groundspeed Altitude Reporting Facility
EDT Latitude Longitude Course Direction KTS MPH feet Rate Location/Type
Wed 01:22:54 PM 39.8500 -104.7500 346° North 167 192 6,800  Level Denver TRACON
Wed 01:23:48 PM 39.8667 -104.8167 288° West 231 266 8,600 2,000 Climbing Denver TRACON
Wed 01:24:48 PM 39.9167 -104.9000 308° West 286 329 10,600 2,286 Climbing Denver TRACON
Wed 01:25:12 PM 39.9381 -104.9242 319° Northwest 292 336 11,800 3,070 Climbing Denver Center
Wed 01:26:00 PM 40.2888 -104.8083 347° North  Level FlightAware Approximate
Wed 01:26:14 PM 40.0197 -104.9469 348° North 311 358 15,000  Level Denver Center
Wed 01:27:00 PM 40.3987 -104.8440 346° North  Level FlightAware Approximate
Wed 01:27:16 PM 40.1050 -104.9356 North 308 354 17,200  Level Denver Center
Wed 01:28:00 PM 40.5084 -104.8806 346° North  Level FlightAware Approximate
Wed 01:28:18 PM 40.1822 -104.9278 North 326 375 18,600  Level Denver Center
Wed 01:29:20 PM 40.2989 -104.9147 North 341 392 20,800 1,984 Climbing Denver Center
Wed 01:30:22 PM 40.4056 -104.8992 North 365 420 22,700 1,597 Climbing Denver Center
Wed 01:31:24 PM 40.5064 -104.8897 North 349 402 24,100 1,161 Climbing Denver Center
Wed 01:32:26 PM 40.5911 -104.8789 North 361 415 25,100 1,113 Climbing Denver Center
Wed 01:33:28 PM 40.7136 -104.8628 North 386 444 26,400 1,161 Climbing Denver Center
Wed 01:34:30 PM 40.8144 -104.8675 358° North 365 420 27,500 1,016 Climbing Denver Center
Wed 01:35:32 PM 40.9106 -104.9133 340° North 365 420 28,500 823 Climbing Denver Center
Wed 01:36:34 PM 41.0119 -104.9594 341° North 361 415 29,200 574 Climbing Denver Center
Wed 01:37:48 PM 41.1042 -105.0119 337° Northwest 373 429 29,800 574 Climbing Denver Center
Wed 01:38:50 PM 41.1775 -105.1531 305° West 369 425 30,500 677 Climbing Denver Center
Wed 01:39:52 PM 41.2294 -105.2906 297° West 373 429 31,200 677 Climbing Denver Center
Wed 01:40:54 PM 41.2744 -105.4081 297° West 371 427 31,900 387 Climbing Denver Center
Wed 01:41:56 PM 41.3278 -105.5489 297° West 379 436 32,000 48 Climbing Denver Center
Wed 01:42:58 PM 41.3742 -105.6747 296° West 391 450 32,000  Level Denver Center
Wed 01:44:00 PM 41.4214 -105.8003 297° West 394 453 32,000  Level Denver Center
Wed 01:45:02 PM 41.4764 -105.9489 296° West 398 458 32,000  Level Denver Center
Wed 01:46:16 PM 41.5239 -106.0750 297° West 399 459 32,000  Level Denver Center
Wed 01:47:18 PM 41.5867 -106.2467 296° West 403 464 32,000  Level Denver Center
Wed 01:48:20 PM 41.6433 -106.3975 297° West 407 468 32,000  Level Denver Center
Wed 01:49:22 PM 41.6875 -106.5214 296° West 406 467 32,000  Level Denver Center
Wed 01:50:24 PM 41.7431 -106.6728 296° West 405 466 32,000  Level Denver Center
Wed 01:51:26 PM 41.7892 -106.8011 296° West 403 464 32,000  Level Denver Center
Wed 01:52:28 PM 41.8431 -106.9503 296° West 400 460 32,000  Level Denver Center
Wed 01:53:30 PM 41.8881 -107.0775 295° West 396 456 32,000  Level Denver Center
Wed 01:54:32 PM 41.9411 -107.2256 296° West 395 455 32,000  Level Denver Center
Wed 01:56:36 PM 42.0386 -107.5022 295° West 396 456 32,000  Level Denver Center
Wed 01:57:38 PM 42.0828 -107.6317 295° West 399 459 32,000  Level Denver Center
Wed 01:58:01 PM 42.1042 -107.6964 294° West 401 461 32,000  Level Salt Lake Center
Wed 01:59:03 PM 42.1508 -107.8253 296° West 400 460 32,000  Level Salt Lake Center
Wed 02:00:05 PM 42.1969 -107.9572 295° West 405 466 32,000  Level Salt Lake Center
Wed 02:01:07 PM 42.2494 -108.1086 295° West 402 463 32,000  Level Salt Lake Center
Wed 02:02:09 PM 42.2917 -108.2381 294° West 397 457 32,000  Level Salt Lake Center
Wed 02:03:11 PM 42.3439 -108.3903 295° West 401 461 32,000  Level Salt Lake Center
Wed 02:04:13 PM 42.3892 -108.5200 295° West 402 463 32,000  Level Salt Lake Center
Wed 02:05:15 PM 42.4386 -108.6728 294° West 399 459 32,000  Level Salt Lake Center
Wed 02:06:17 PM 42.4828 -108.8031 295° West 399 459 32,000  Level Salt Lake Center
Wed 02:07:19 PM 42.5342 -108.9575 294° West 403 464 32,000  Level Salt Lake Center
Wed 02:08:21 PM 42.5781 -109.0911 294° West 405 466 32,000  Level Salt Lake Center
Wed 02:09:23 PM 42.6297 -109.2469 294° West 405 466 32,000  Level Salt Lake Center
Wed 02:10:25 PM 42.6725 -109.3775 294° West 400 460 32,000  Level Salt Lake Center
Wed 02:11:27 PM 42.7225 -109.5308 294° West 397 457 32,000  Level Salt Lake Center
Wed 02:12:29 PM 42.7650 -109.6617 294° West 397 457 32,000  Level Salt Lake Center
Wed 02:13:32 PM 42.8139 -109.8133 294° West 394 453 32,000  Level Salt Lake Center
Wed 02:14:34 PM 42.8575 -109.9492 294° West 397 457 32,000  Level Salt Lake Center
Wed 02:15:36 PM 42.9064 -110.1019 294° West 394 453 32,000  Level Salt Lake Center
Wed 02:16:38 PM 42.9467 -110.2283 294° West 393 452 32,000 -48 Level Salt Lake Center
Wed 02:17:40 PM 42.9964 -110.3881 293° West 397 457 31,900 -1,161 Descending Salt Lake Center
Wed 02:18:42 PM 43.0389 -110.5203 294° West 396 456 29,600 -2,226 Descending Salt Lake Center
Wed 02:19:44 PM 43.0828 -110.6561 294° West 406 467 27,300 -2,468 Descending Salt Lake Center
Wed 02:20:46 PM 43.1322 -110.8169 293° West 410 472 24,500 -2,516 Descending Salt Lake Center
Wed 02:21:48 PM 43.1758 -110.9558 293° West 413 475 22,100 -2,371 Descending Salt Lake Center
Wed 02:22:50 PM 43.2186 -111.0958 293° West 390 449 19,600 -2,177 Descending Salt Lake Center
Wed 02:23:52 PM 43.2594 -111.2278 293° West 376 433 17,600 -2,244 Descending Salt Lake Center
Wed 02:24:53 PM 43.3061 -111.3794 293° West 376 433 15,000 -2,341 Descending Salt Lake Center
Wed 02:25:55 PM 43.3425 -111.4992 293° West 368 423 12,800 -1,887 Descending Salt Lake Center
Wed 02:26:57 PM 43.3808 -111.6258 293° West 348 400 11,100 -1,306 Descending Salt Lake Center
Wed 02:27:59 PM 43.4158 -111.7081 300° West 305 351 10,100 -871 Descending Salt Lake Center
Wed 02:29:01 PM 43.4528 -111.7750 307° West 259 298 9,300 -726 Descending Salt Lake Center
Wed 02:30:03 PM 43.4925 -111.8572 304° West 240 276 8,600 -677 Descending Salt Lake Center

Login

Don't have an account? Register now (free) for customized features, flight alerts, and more!